createdAt,value
2017-10-13T00:02:06.980Z,4.73
2017-10-13T00:04:34.792Z,3.30
2017-10-13T00:07:02.632Z,3.57
2017-10-13T00:09:30.488Z,4.87
2017-10-13T00:11:58.310Z,3.30
2017-10-13T00:14:26.133Z,4.23
2017-10-13T00:16:53.961Z,4.17
2017-10-13T00:19:21.781Z,3.67
2017-10-13T00:21:49.618Z,2.60
2017-10-13T00:24:17.445Z,3.80
2017-10-13T00:26:45.272Z,3.70
2017-10-13T00:29:13.118Z,3.00
2017-10-13T00:31:40.942Z,3.77
2017-10-13T00:34:08.781Z,3.10
2017-10-13T00:36:36.604Z,3.77
2017-10-13T00:39:04.460Z,4.20
2017-10-13T00:41:32.269Z,3.80
2017-10-13T00:44:00.103Z,3.83
2017-10-13T00:46:27.949Z,3.10
2017-10-13T00:48:55.796Z,3.90
2017-10-13T00:51:23.636Z,4.77
2017-10-13T00:53:51.461Z,3.57
2017-10-13T00:56:19.320Z,4.33
2017-10-13T00:58:47.156Z,4.20
2017-10-13T01:01:14.991Z,3.60
2017-10-13T01:03:42.810Z,4.00
2017-10-13T01:06:10.638Z,3.43
2017-10-13T01:08:38.449Z,2.70
2017-10-13T01:11:06.306Z,5.20
2017-10-13T01:13:34.139Z,4.20
2017-10-13T01:16:01.949Z,3.70
2017-10-13T01:18:29.807Z,3.40
2017-10-13T01:20:57.677Z,3.23
2017-10-13T01:23:25.501Z,3.63
2017-10-13T01:25:53.321Z,3.00
2017-10-13T01:28:21.384Z,3.80
2017-10-13T01:30:49.210Z,4.50
2017-10-13T01:33:17.052Z,4.80
2017-10-13T01:35:44.887Z,4.17
2017-10-13T01:38:12.707Z,3.70
2017-10-13T01:40:40.524Z,5.30
2017-10-13T01:43:08.354Z,5.20
2017-10-13T01:45:36.178Z,4.10
2017-10-13T01:48:04.016Z,4.00
2017-10-13T01:50:31.846Z,5.20
2017-10-13T01:53:00.465Z,4.23
2017-10-13T01:55:28.293Z,4.33
2017-10-13T01:57:56.128Z,5.10
2017-10-13T02:00:23.965Z,5.23
2017-10-13T02:02:51.793Z,3.50
2017-10-13T02:05:19.615Z,4.00
2017-10-13T02:07:47.449Z,5.20
2017-10-13T02:10:15.260Z,4.13
2017-10-13T02:12:43.097Z,5.03
2017-10-13T02:15:10.925Z,5.30
2017-10-13T02:17:45.682Z,5.03
2017-10-13T02:20:13.498Z,4.60
2017-10-13T02:22:41.333Z,5.70
2017-10-13T02:25:09.173Z,5.50
2017-10-13T02:27:37.018Z,5.83
2017-10-13T02:30:04.845Z,5.67
2017-10-13T02:32:32.709Z,5.93
2017-10-13T02:35:00.569Z,6.27
2017-10-13T02:37:28.399Z,5.67
2017-10-13T02:39:56.240Z,6.57
2017-10-13T02:42:24.060Z,5.83
2017-10-13T02:44:51.893Z,6.90
2017-10-13T02:47:19.717Z,7.93
2017-10-13T02:49:47.561Z,8.10
2017-10-13T02:52:15.390Z,7.07
2017-10-13T02:54:43.233Z,7.67
2017-10-13T02:57:11.061Z,7.73
2017-10-13T02:59:38.892Z,8.53
2017-10-13T03:02:06.696Z,7.87
2017-10-13T03:04:34.532Z,7.93
2017-10-13T03:07:02.356Z,8.13
2017-10-13T03:09:30.178Z,8.43
2017-10-13T03:11:58.009Z,9.00
2017-10-13T03:14:25.844Z,9.80
2017-10-13T03:16:53.699Z,8.60
2017-10-13T03:19:21.516Z,8.07
2017-10-13T03:21:49.328Z,10.27
2017-10-13T03:24:17.149Z,8.50
2017-10-13T03:26:44.969Z,9.43
2017-10-13T03:29:12.796Z,9.77
2017-10-13T03:31:40.651Z,9.27
2017-10-13T03:34:08.488Z,8.53
2017-10-13T03:36:36.325Z,8.10
2017-10-13T03:39:04.150Z,8.93
2017-10-13T03:41:31.968Z,8.87
2017-10-13T03:43:59.808Z,8.60
2017-10-13T03:46:27.652Z,9.67
2017-10-13T03:48:55.488Z,10.00
2017-10-13T03:51:23.334Z,8.40
2017-10-13T03:53:51.176Z,9.70
2017-10-13T03:56:19.013Z,9.43
2017-10-13T03:58:46.864Z,9.13
2017-10-13T04:01:14.693Z,10.70
2017-10-13T04:03:42.524Z,10.40
2017-10-13T04:06:10.360Z,10.00
2017-10-13T04:08:38.208Z,10.90
2017-10-13T04:11:06.017Z,10.83
2017-10-13T04:13:33.852Z,12.30
2017-10-13T04:16:01.697Z,13.33
2017-10-13T04:18:29.542Z,12.50
2017-10-13T04:20:57.376Z,11.17
2017-10-13T04:23:25.205Z,12.97
2017-10-13T04:25:53.047Z,13.40
2017-10-13T04:28:20.871Z,13.43
2017-10-13T04:30:48.692Z,12.00
2017-10-13T04:33:16.529Z,12.30
2017-10-13T04:35:44.377Z,13.43
2017-10-13T04:38:12.209Z,15.37
2017-10-13T04:40:40.021Z,13.50
2017-10-13T04:43:07.846Z,11.10
2017-10-13T04:45:35.681Z,14.20
2017-10-13T04:48:03.521Z,11.40
2017-10-13T04:50:31.336Z,11.80
2017-10-13T04:52:59.178Z,11.90
2017-10-13T04:55:27.009Z,11.53
2017-10-13T04:57:54.830Z,12.07
2017-10-13T05:00:22.665Z,13.70
2017-10-13T05:02:50.509Z,13.30
2017-10-13T05:05:18.326Z,12.97
2017-10-13T05:07:46.149Z,13.83
2017-10-13T05:10:13.965Z,15.40
2017-10-13T05:12:41.797Z,13.53
2017-10-13T05:15:09.632Z,14.00
2017-10-13T05:17:37.473Z,15.10
2017-10-13T05:20:05.294Z,14.83
2017-10-13T05:22:33.108Z,12.77
2017-10-13T05:25:00.952Z,14.40
2017-10-13T05:27:28.777Z,14.40
2017-10-13T05:29:56.617Z,13.70
2017-10-13T05:32:24.492Z,13.87
2017-10-13T05:34:52.324Z,14.73
2017-10-13T05:37:20.212Z,13.03
2017-10-13T05:39:48.057Z,14.17
2017-10-13T05:42:15.884Z,15.30
2017-10-13T05:44:43.723Z,13.60
2017-10-13T05:47:11.561Z,15.03
2017-10-13T05:49:39.388Z,15.50
2017-10-13T05:52:07.220Z,14.27
2017-10-13T05:54:35.030Z,14.83
2017-10-13T05:57:02.855Z,14.27
2017-10-13T05:59:30.661Z,14.83
2017-10-13T06:01:58.484Z,14.20
2017-10-13T06:04:26.328Z,15.60
2017-10-13T06:06:54.201Z,13.60
2017-10-13T06:09:22.059Z,15.10
2017-10-13T06:11:49.899Z,14.53
2017-10-13T06:14:18.108Z,14.70
2017-10-13T06:16:45.984Z,13.47
2017-10-13T06:19:13.797Z,13.70
2017-10-13T06:21:41.617Z,13.03
2017-10-13T06:24:09.452Z,12.60
2017-10-13T06:26:37.278Z,11.20
2017-10-13T06:29:05.105Z,13.93
2017-10-13T06:31:32.968Z,12.50
2017-10-13T06:34:00.788Z,12.07
2017-10-13T06:36:28.612Z,8.60
2017-10-13T06:38:56.410Z,11.80
2017-10-13T06:41:24.226Z,12.03
2017-10-13T06:43:52.057Z,11.10
2017-10-13T06:46:19.897Z,12.90
2017-10-13T06:48:47.730Z,12.80
2017-10-13T06:51:15.557Z,10.47
2017-10-13T06:53:43.375Z,11.83
2017-10-13T06:56:11.217Z,7.63
2017-10-13T06:58:39.067Z,12.37
2017-10-13T07:01:06.930Z,11.40
2017-10-13T07:03:34.748Z,11.27
2017-10-13T07:06:02.569Z,13.33
2017-10-13T07:08:30.401Z,9.10
2017-10-13T07:10:58.289Z,11.40
2017-10-13T07:13:26.109Z,10.50
2017-10-13T07:15:53.937Z,10.73
2017-10-13T07:18:21.767Z,9.73
2017-10-13T07:20:49.587Z,11.90
2017-10-13T07:23:17.425Z,11.67
2017-10-13T07:25:45.243Z,10.87
2017-10-13T07:28:13.077Z,10.00
2017-10-13T07:30:40.899Z,10.47
2017-10-13T07:33:08.743Z,10.10
2017-10-13T07:35:36.564Z,9.90
2017-10-13T07:38:04.413Z,10.63
2017-10-13T07:40:32.251Z,9.90
2017-10-13T07:43:00.097Z,9.00
2017-10-13T07:45:27.932Z,10.50
2017-10-13T07:47:55.801Z,9.10
2017-10-13T07:50:23.625Z,11.00
2017-10-13T07:52:51.449Z,10.00
2017-10-13T07:55:19.270Z,10.73
2017-10-13T07:57:47.116Z,11.10
2017-10-13T08:00:14.921Z,9.67
2017-10-13T08:02:42.752Z,11.37
2017-10-13T08:05:10.577Z,10.03
2017-10-13T08:07:38.473Z,10.87
2017-10-13T08:10:06.317Z,10.80
2017-10-13T08:12:34.141Z,11.73
2017-10-13T08:15:01.988Z,8.40
2017-10-13T08:17:29.815Z,8.00
2017-10-13T08:19:57.629Z,9.53
2017-10-13T08:22:25.440Z,11.70
2017-10-13T08:24:53.293Z,11.83
2017-10-13T08:27:21.128Z,10.87
2017-10-13T08:29:48.971Z,10.03
2017-10-13T08:32:16.825Z,11.23
2017-10-13T08:34:44.673Z,11.30
2017-10-13T08:37:12.495Z,9.07
2017-10-13T08:39:40.329Z,12.73
2017-10-13T08:42:08.165Z,11.47
2017-10-13T08:44:35.990Z,11.40
2017-10-13T08:47:03.825Z,11.10
2017-10-13T08:49:31.655Z,10.43
2017-10-13T08:51:59.484Z,10.30
2017-10-13T08:54:27.345Z,9.47
2017-10-13T08:56:55.180Z,10.60
2017-10-13T08:59:23.013Z,11.63
2017-10-13T09:01:50.874Z,11.40
2017-10-13T09:04:18.721Z,9.40
2017-10-13T09:06:46.575Z,9.77
2017-10-13T09:09:14.432Z,10.80
2017-10-13T09:11:42.279Z,11.67
2017-10-13T09:14:10.089Z,11.43
2017-10-13T09:16:37.945Z,9.30
2017-10-13T09:19:05.800Z,11.73
2017-10-13T09:21:33.666Z,9.67
2017-10-13T09:24:01.503Z,11.13
2017-10-13T09:26:29.339Z,10.13
2017-10-13T09:28:57.251Z,10.73
2017-10-13T09:31:25.118Z,9.60
2017-10-13T09:33:53.001Z,12.50
2017-10-13T09:36:20.833Z,11.33
2017-10-13T09:38:48.656Z,10.47
2017-10-13T09:41:16.498Z,10.67
2017-10-13T09:43:44.325Z,8.93
2017-10-13T09:46:12.184Z,9.57
2017-10-13T09:48:40.026Z,10.30
2017-10-13T09:51:07.868Z,12.43
2017-10-13T09:53:35.725Z,10.50
2017-10-13T09:56:03.533Z,9.40
2017-10-13T09:58:31.396Z,13.00
2017-10-13T10:00:59.192Z,14.30
2017-10-13T10:03:27.033Z,13.30
2017-10-13T10:05:54.872Z,12.50
2017-10-13T10:08:22.722Z,13.93
2017-10-13T10:10:50.553Z,13.40
2017-10-13T10:13:18.389Z,12.50
2017-10-13T10:15:46.219Z,12.37
2017-10-13T10:18:14.057Z,12.53
2017-10-13T10:20:41.896Z,11.73
2017-10-13T10:23:09.752Z,11.17
2017-10-13T10:25:37.561Z,11.77
2017-10-13T10:28:05.381Z,9.13
2017-10-13T10:30:33.216Z,9.80
2017-10-13T10:33:01.061Z,10.40
2017-10-13T10:35:28.878Z,9.63
2017-10-13T10:37:56.705Z,11.00
2017-10-13T10:40:24.565Z,10.90
2017-10-13T10:42:52.381Z,8.60
2017-10-13T10:45:20.204Z,8.93
2017-10-13T10:47:48.013Z,10.30
2017-10-13T10:50:15.872Z,11.00
2017-10-13T10:52:43.696Z,10.30
2017-10-13T10:55:11.516Z,10.13
2017-10-13T10:57:39.325Z,9.27
2017-10-13T11:00:07.147Z,8.27
2017-10-13T11:02:34.958Z,10.80
2017-10-13T11:05:02.784Z,11.33
2017-10-13T11:07:30.619Z,10.20
2017-10-13T11:09:58.431Z,9.90
2017-10-13T11:12:26.267Z,9.03
2017-10-13T11:14:54.073Z,9.23
2017-10-13T11:17:21.883Z,8.10
2017-10-13T11:19:49.709Z,7.70
2017-10-13T11:22:17.529Z,8.10
2017-10-13T11:24:45.369Z,7.50
2017-10-13T11:27:13.188Z,7.50
2017-10-13T11:29:41.013Z,7.47
2017-10-13T11:32:08.840Z,6.60
2017-10-13T11:34:36.664Z,7.93
2017-10-13T11:37:04.493Z,7.23
2017-10-13T11:39:32.320Z,7.80
2017-10-13T11:42:00.177Z,6.70
2017-10-13T11:44:28.053Z,8.17
2017-10-13T11:46:55.871Z,6.30
2017-10-13T11:49:23.688Z,6.77
2017-10-13T11:51:51.557Z,5.90
2017-10-13T11:54:19.368Z,6.43
2017-10-13T11:56:47.189Z,6.53
2017-10-13T11:59:15.031Z,6.10
2017-10-13T12:01:42.865Z,6.00
2017-10-13T12:04:10.690Z,6.07
2017-10-13T12:06:38.496Z,9.20
2017-10-13T12:09:06.332Z,6.80
2017-10-13T12:11:34.145Z,6.70
2017-10-13T12:14:01.989Z,7.53
2017-10-13T12:16:29.809Z,7.50
2017-10-13T12:18:57.649Z,5.67
2017-10-13T12:21:25.473Z,8.10
2017-10-13T12:23:53.281Z,7.80
2017-10-13T12:26:21.080Z,6.70
2017-10-13T12:28:48.915Z,6.83
2017-10-13T12:31:16.725Z,6.00
2017-10-13T12:33:44.562Z,8.00
2017-10-13T12:36:12.389Z,8.10
2017-10-13T12:38:40.194Z,6.10
2017-10-13T12:41:08.033Z,7.50
2017-10-13T12:43:35.841Z,6.87
2017-10-13T12:46:03.649Z,7.03
2017-10-13T12:48:31.459Z,5.87
2017-10-13T12:50:59.280Z,6.93
2017-10-13T12:53:27.094Z,8.43
2017-10-13T12:55:54.958Z,6.80
2017-10-13T12:58:22.759Z,7.17
2017-10-13T13:00:50.590Z,6.33
2017-10-13T13:03:18.413Z,7.10
2017-10-13T13:05:46.249Z,8.90
2017-10-13T13:08:14.065Z,7.20
2017-10-13T13:10:41.896Z,8.90
2017-10-13T13:13:09.733Z,7.93
2017-10-13T13:15:37.540Z,8.63
2017-10-13T13:18:05.356Z,8.30
2017-10-13T13:20:40.172Z,7.07
2017-10-13T13:23:07.989Z,8.20
2017-10-13T13:25:35.793Z,7.63
2017-10-13T13:28:03.602Z,7.60
2017-10-13T13:30:31.408Z,8.10
2017-10-13T13:32:59.226Z,9.63
2017-10-13T13:35:27.053Z,9.03
2017-10-13T13:37:54.915Z,10.27
2017-10-13T13:40:22.736Z,10.77
2017-10-13T13:42:50.566Z,9.50
2017-10-13T13:45:18.412Z,8.90
2017-10-13T13:47:46.224Z,9.73
2017-10-13T13:50:14.068Z,10.93
2017-10-13T13:52:41.911Z,12.93
2017-10-13T13:55:09.741Z,12.53
2017-10-13T13:57:37.567Z,10.67
2017-10-13T14:00:05.383Z,12.17
2017-10-13T14:02:33.219Z,12.20
2017-10-13T14:05:01.084Z,11.47
2017-10-13T14:07:28.951Z,11.93
2017-10-13T14:09:56.781Z,10.37
2017-10-13T14:12:24.686Z,11.37
2017-10-13T14:14:52.771Z,9.90
2017-10-13T14:17:20.625Z,11.10
2017-10-13T14:19:48.457Z,11.17
2017-10-13T14:22:16.340Z,12.10
2017-10-13T14:24:44.156Z,11.20
2017-10-13T14:27:11.980Z,11.77
2017-10-13T14:29:39.809Z,11.97
2017-10-13T14:32:07.633Z,8.90
2017-10-13T14:34:35.475Z,10.40
2017-10-13T14:37:03.310Z,9.30
2017-10-13T14:39:31.153Z,8.90
2017-10-13T14:41:58.977Z,9.00
2017-10-13T14:44:26.821Z,8.80
2017-10-13T14:46:54.644Z,9.10
2017-10-13T14:49:22.494Z,7.47
2017-10-13T14:51:50.349Z,9.20
2017-10-13T14:54:18.177Z,9.10
2017-10-13T14:56:46.043Z,8.90
2017-10-13T14:59:13.886Z,44.27
2017-10-13T15:01:41.728Z,9.43
2017-10-13T15:04:09.540Z,21.20
2017-10-13T15:06:37.362Z,21.40
2017-10-13T15:09:05.187Z,8.33
2017-10-13T15:11:33.006Z,10.13
2017-10-13T15:14:00.829Z,8.40
2017-10-13T15:16:28.645Z,9.20
2017-10-13T15:18:56.537Z,9.13
2017-10-13T15:21:24.381Z,8.97
2017-10-13T15:23:52.202Z,8.27
2017-10-13T15:26:26.345Z,8.20
2017-10-13T15:29:00.150Z,75.57
2017-10-13T15:31:34.116Z,10.60
2017-10-13T15:34:08.001Z,8.97
2017-10-13T15:36:35.969Z,17.37
2017-10-13T15:39:10.052Z,12.90
2017-10-13T15:41:44.146Z,8.17
2017-10-13T15:44:18.164Z,14.03
2017-10-13T15:46:52.069Z,11.03
2017-10-13T15:49:26.129Z,8.80
2017-10-13T15:52:00.129Z,9.57
2017-10-13T15:54:27.978Z,9.80
2017-10-13T15:56:55.801Z,7.93
2017-10-13T15:59:23.634Z,8.70
2017-10-13T16:01:51.479Z,10.13
2017-10-13T16:04:19.317Z,7.37
2017-10-13T16:06:47.165Z,7.53
2017-10-13T16:09:15.012Z,8.50
2017-10-13T16:11:42.862Z,29.43
2017-10-13T16:14:10.694Z,80.50
2017-10-13T16:16:38.536Z,21.77
2017-10-13T16:19:06.367Z,14.10
2017-10-13T16:21:34.225Z,14.07
2017-10-13T16:24:02.036Z,13.63
2017-10-13T16:26:29.866Z,9.77
2017-10-13T16:28:57.696Z,9.33
2017-10-13T16:31:25.542Z,10.07
2017-10-13T16:33:54.377Z,8.43
2017-10-13T16:36:23.263Z,9.30
2017-10-13T16:38:51.136Z,8.33
2017-10-13T16:41:19.103Z,8.60
2017-10-13T16:43:47.021Z,7.60
2017-10-13T16:46:14.885Z,10.27
2017-10-13T16:48:42.746Z,9.17
2017-10-13T16:51:10.609Z,9.87
2017-10-13T16:53:38.550Z,9.53
2017-10-13T16:56:06.428Z,8.67
2017-10-13T16:58:34.346Z,10.40
2017-10-13T17:01:02.226Z,9.03
2017-10-13T17:03:30.301Z,9.83
2017-10-13T17:05:58.167Z,10.23
2017-10-13T17:08:26.029Z,8.23
2017-10-13T17:10:54.254Z,10.43
2017-10-13T17:13:22.289Z,9.90
2017-10-13T17:15:50.160Z,10.57
2017-10-13T17:18:18.036Z,9.67
2017-10-13T17:20:45.879Z,9.43
2017-10-13T17:23:13.744Z,9.20
2017-10-13T17:25:41.597Z,10.57
2017-10-13T17:28:09.607Z,9.67
2017-10-13T17:30:37.476Z,10.37
2017-10-13T17:33:05.344Z,10.40
2017-10-13T17:35:33.169Z,11.40
2017-10-13T17:38:01.034Z,11.00
2017-10-13T17:40:28.887Z,10.50
2017-10-13T17:42:56.718Z,10.60
2017-10-13T17:45:24.574Z,12.23
2017-10-13T17:47:52.420Z,10.30
2017-10-13T17:50:20.236Z,11.17
2017-10-13T17:52:48.086Z,10.00
2017-10-13T17:55:15.963Z,10.87
2017-10-13T17:57:43.796Z,10.87
2017-10-13T18:00:11.691Z,13.50
2017-10-13T18:02:39.547Z,11.20
2017-10-13T18:05:07.469Z,11.67
2017-10-13T18:07:35.312Z,11.23
2017-10-13T18:10:03.334Z,10.07
2017-10-13T18:12:31.201Z,22.60
2017-10-13T18:14:59.155Z,12.10
2017-10-13T18:17:26.989Z,12.60
2017-10-13T18:19:54.817Z,13.20
2017-10-13T18:22:22.700Z,11.77
2017-10-13T18:24:50.566Z,12.00
2017-10-13T18:27:18.378Z,11.60
2017-10-13T18:29:46.217Z,12.40
2017-10-13T18:32:14.106Z,11.47
2017-10-13T18:34:42.088Z,12.53
2017-10-13T18:37:09.921Z,13.90
2017-10-13T18:39:37.769Z,14.50
2017-10-13T18:42:05.649Z,12.30
2017-10-13T18:44:33.511Z,13.10
2017-10-13T18:47:06.134Z,15.63
2017-10-13T18:49:33.976Z,14.67
2017-10-13T18:52:01.826Z,15.20
2017-10-13T18:54:29.689Z,13.90
2017-10-13T18:56:57.677Z,15.90
2017-10-13T18:59:25.568Z,13.87
2017-10-13T19:01:53.425Z,15.50
2017-10-13T19:04:21.361Z,13.70
2017-10-13T19:06:49.367Z,13.67
2017-10-13T19:09:17.265Z,13.97
2017-10-13T19:11:45.277Z,14.93
2017-10-13T19:14:13.156Z,13.90
2017-10-13T19:16:41.017Z,15.23
2017-10-13T19:19:08.911Z,14.00
2017-10-13T19:21:36.772Z,14.60
2017-10-13T19:24:04.706Z,14.70
2017-10-13T19:26:32.654Z,14.43
2017-10-13T19:29:00.671Z,15.40
2017-10-13T19:31:28.582Z,15.03
2017-10-13T19:33:56.452Z,13.17
2017-10-13T19:36:24.382Z,15.70
2017-10-13T19:38:52.511Z,15.20
2017-10-13T19:41:20.529Z,15.63
2017-10-13T19:43:49.628Z,16.03
2017-10-13T19:46:17.615Z,14.20
2017-10-13T19:48:45.486Z,15.90
2017-10-13T19:51:13.474Z,15.37
2017-10-13T19:53:41.380Z,15.63
2017-10-13T19:56:09.247Z,17.33
2017-10-13T19:58:37.259Z,17.30
2017-10-13T20:01:05.181Z,17.33
2017-10-13T20:03:33.098Z,20.70
2017-10-13T20:06:07.513Z,18.23
2017-10-13T20:08:35.352Z,16.67
2017-10-13T20:11:03.197Z,16.90
2017-10-13T20:13:31.055Z,15.97
2017-10-13T20:15:58.924Z,17.00
2017-10-13T20:18:26.777Z,17.50
2017-10-13T20:20:54.661Z,16.83
2017-10-13T20:23:22.591Z,16.63
2017-10-13T20:25:50.474Z,17.77
2017-10-13T20:28:18.341Z,19.77
2017-10-13T20:30:46.196Z,19.70
2017-10-13T20:33:14.037Z,17.97
2017-10-13T20:35:41.889Z,18.60
2017-10-13T20:38:09.748Z,18.57
2017-10-13T20:40:37.598Z,18.43
2017-10-13T20:43:05.454Z,18.03
2017-10-13T20:45:33.316Z,19.10
2017-10-13T20:48:01.161Z,18.50
2017-10-13T20:50:29.024Z,19.10
2017-10-13T20:52:56.852Z,19.10
2017-10-13T20:55:24.721Z,21.50
2017-10-13T20:57:52.569Z,16.80
2017-10-13T21:00:20.394Z,21.20
2017-10-13T21:02:48.221Z,20.97
2017-10-13T21:05:16.089Z,20.73
2017-10-13T21:07:43.920Z,21.37
2017-10-13T21:10:11.778Z,22.57
2017-10-13T21:12:39.656Z,21.80
2017-10-13T21:15:07.493Z,22.70
2017-10-13T21:17:35.364Z,24.20
2017-10-13T21:20:03.232Z,24.27
2017-10-13T21:22:31.102Z,23.10
2017-10-13T21:24:58.957Z,23.00
2017-10-13T21:27:26.809Z,24.63
2017-10-13T21:29:54.665Z,22.03
2017-10-13T21:32:22.510Z,22.27
2017-10-13T21:34:50.356Z,25.80
2017-10-13T21:37:18.193Z,24.73
2017-10-13T21:39:46.110Z,26.63
2017-10-13T21:42:13.978Z,25.67
2017-10-13T21:44:41.802Z,24.40
2017-10-13T21:47:09.649Z,23.60
2017-10-13T21:49:37.479Z,25.90
2017-10-13T21:52:05.306Z,26.50
2017-10-13T21:54:33.152Z,27.87
2017-10-13T21:57:00.998Z,24.70
2017-10-13T21:59:28.857Z,26.33
2017-10-13T22:01:56.675Z,24.50
2017-10-13T22:04:24.564Z,26.10
2017-10-13T22:06:52.405Z,27.50
2017-10-13T22:09:20.254Z,24.00
2017-10-13T22:11:48.122Z,27.70
2017-10-13T22:14:15.953Z,24.97
2017-10-13T22:16:43.769Z,26.77
2017-10-13T22:19:11.617Z,27.20
2017-10-13T22:21:39.478Z,24.67
2017-10-13T22:24:07.314Z,22.03
2017-10-13T22:26:35.143Z,24.20
2017-10-13T22:29:03.000Z,28.40
2017-10-13T22:31:30.827Z,26.17
2017-10-13T22:33:58.698Z,26.60
2017-10-13T22:36:26.516Z,25.60
2017-10-13T22:38:54.347Z,25.67
2017-10-13T22:41:22.181Z,29.10
2017-10-13T22:43:50.037Z,26.30
2017-10-13T22:46:17.873Z,25.80
2017-10-13T22:48:45.713Z,24.90
2017-10-13T22:51:13.549Z,25.10
2017-10-13T22:53:41.377Z,25.60
2017-10-13T22:56:09.221Z,25.27
2017-10-13T22:58:37.064Z,25.83
2017-10-13T23:01:04.925Z,28.63
2017-10-13T23:03:32.765Z,29.67
2017-10-13T23:06:00.638Z,24.20
2017-10-13T23:08:28.474Z,26.77
2017-10-13T23:10:56.317Z,26.77
2017-10-13T23:13:24.135Z,27.30
2017-10-13T23:15:52.025Z,28.43
2017-10-13T23:18:19.850Z,29.40
2017-10-13T23:20:47.685Z,27.50
2017-10-13T23:23:15.524Z,28.67
2017-10-13T23:25:43.351Z,27.50
2017-10-13T23:28:11.215Z,29.37
2017-10-13T23:30:39.058Z,29.50
2017-10-13T23:33:06.921Z,29.20
2017-10-13T23:35:34.778Z,27.57
2017-10-13T23:38:02.629Z,28.53
2017-10-13T23:40:30.449Z,25.80
2017-10-13T23:42:58.282Z,30.37
2017-10-13T23:45:26.144Z,28.67
2017-10-13T23:47:54.024Z,30.90
2017-10-13T23:50:21.860Z,29.57
2017-10-13T23:52:49.722Z,31.40
2017-10-13T23:55:17.573Z,31.83
2017-10-13T23:57:45.429Z,32.07
